Northport, MI (49670)

7:59 AM EDT on May 24, 2017 (GMT -0400)
Northern Rolling Hills | | Change Station

Elev 650 ft 45.10 °N, 85.61 °W | Updated 3 seconds ago

Rain
Rain
49.1 °F
Feels Like 49 °F
N
0.0
Wind Variable Wind from West
Gusts 0.0 mph

Today
High -- | Low -- °F
--% Chance of Precip.
Yesterday
High -- | Low -- °F
Precip. -- in
Pressure 29.74 in
Visibility 7.0 miles
Clouds Overcast 600 ft
Windchill 49 °F
Dew Point 49 °F
Humidity 99%
Rainfall 0.24 in
Snow Depth Not available.
6:03 AM 9:15 PM
Waning Crescent, 3% visible
METAR KCVX 241155Z AUTO 10005KT 7SM OVC006 11/11 A2974 RMK AO2 T01050105 10105 20096
Pressure 29.74 in
Visibility 7.0 miles
Clouds Overcast 600 ft
Windchill 49 °F
Dew Point 49 °F
Humidity 99%
Rainfall 0.24 in
Snow Depth Not available.
6:03 AM 9:15 PM
Waning Crescent, 3% visible
METAR KCVX 241155Z AUTO 10005KT 7SM OVC006 11/11 A2974 RMK AO2 T01050105 10105 20096

Get Severe Weather Alerts

Thanks for signing up!

Be on the lookout for a verification email in your inbox.

You'll start receiving the daily forecast at 6 AM.

×

10-Day Weather Forecast

Almanac

Astronomy

May. 24, 2017 Rise Set
Actual Time
Civil Twilight
Nautical Twilight
Astronomical Twilight
Moon
Length of Visible Light
Length of Day
Tomorrow will be .
, % of the Moon is Illuminated

Today's Extremes

State Highs State Lows

Community

WunderPhotos

Category 6

Welcome to Category 6. This is the collective home for Weather Underground's featured writeups by Dr. Jeff Masters (right), Bob Henson (left), Chris Burt, and other regular contributors.

Nearby

Air Quality

  Air Quality AQ Index Pollutant
Not available.

Snow Depth

Station Depth Elevation

Earthquake Activity

City Distance Mag. Time & Date
Minimum magnitude displayed is 2.5.

Coastal Water Temperatures

Place Temperature

Stations

Nearby Weather Stations

Station Location Temp. Windchill Dew Point Humidity Wind Precip. Elev Updated Type
                   

Watches & Warnings

There are currently no watches in effect.